Time;durP1;ratioP1;P1;durP2;ratioP2;P2;SDS_P1;SDS_P2;PMS_P1;PMS_P2;Temp;Humidity;BMP_temperature;BMP_pressure;BME280_temperature;BME280_humidity;BME280_pressure;Samples;Min_cycle;Max_cycle;Signal;HPM_P1;HPM_P2
2022/01/08 00:01:59;;;;;;;24.95;16.70;;;;;;;;;;143743;577;46020;-63
2022/01/08 00:04:26;;;;;;;26.52;19.10;;;;;;;;;;143742;577;46023;-63
2022/01/08 00:06:53;;;;;;;26.17;17.35;;;;;;;;;;143740;569;46018;-61
2022/01/08 00:09:20;;;;;;;33.53;21.27;;;;;;;;;;143746;580;46022;-62
2022/01/08 00:11:47;;;;;;;33.47;22.33;;;;;;;;;;143743;564;47019;-63
2022/01/08 00:14:15;;;;;;;32.13;18.87;;;;;;;;;;143742;666;46010;-62
2022/01/08 00:16:42;;;;;;;26.83;17.77;;;;;;;;;;143740;574;46018;-63
2022/01/08 00:19:09;;;;;;;18.00;12.75;;;;;;;;;;143744;638;46022;-63
2022/01/08 00:21:37;;;;;;;22.95;14.93;;;;;;;;;;143743;661;46021;-62
2022/01/08 00:24:04;;;;;;;21.50;14.45;;;;;;;;;;143741;564;46022;-62
2022/01/08 00:26:31;;;;;;;27.98;18.25;;;;;;;;;;143736;631;46020;-63
2022/01/08 00:28:59;;;;;;;23.50;16.52;;;;;;;;;;143728;577;46021;-62
2022/01/08 00:31:26;;;;;;;30.35;17.30;;;;;;;;;;143727;595;46020;-62
2022/01/08 00:33:53;;;;;;;34.30;16.95;;;;;;;;;;143726;597;46027;-62
2022/01/08 00:36:21;;;;;;;26.87;17.15;;;;;;;;;;143725;639;46019;-62
2022/01/08 00:38:48;;;;;;;27.98;17.83;;;;;;;;;;143731;607;46022;-63
2022/01/08 00:41:15;;;;;;;30.02;16.52;;;;;;;;;;143728;569;46020;-63
2022/01/08 00:43:42;;;;;;;29.65;17.02;;;;;;;;;;143727;566;46023;-63
2022/01/08 00:46:09;;;;;;;29.52;17.58;;;;;;;;;;143724;612;46028;-62
2022/01/08 00:48:36;;;;;;;24.87;17.20;;;;;;;;;;143732;597;46022;-63
2022/01/08 00:51:03;;;;;;;23.65;15.85;;;;;;;;;;143727;588;46021;-61
2022/01/08 00:53:30;;;;;;;26.70;16.62;;;;;;;;;;143727;592;46010;-62
2022/01/08 00:55:57;;;;;;;27.65;16.50;;;;;;;;;;143724;607;46018;-61
2022/01/08 00:58:24;;;;;;;24.87;16.52;;;;;;;;;;143730;583;46023;-62
2022/01/08 01:00:51;;;;;;;25.08;15.93;;;;;;;;;;143728;658;46020;-61
2022/01/08 01:03:18;;;;;;;24.98;16.20;;;;;;;;;;143726;627;46023;-62
2022/01/08 01:05:45;;;;;;;29.55;18.35;;;;;;;;;;143723;580;46019;-62
2022/01/08 01:08:13;;;;;;;31.83;18.17;;;;;;;;;;143727;570;46022;-61
2022/01/08 01:10:40;;;;;;;26.98;16.60;;;;;;;;;;143726;628;46039;-61
2022/01/08 01:13:08;;;;;;;24.67;16.37;;;;;;;;;;143726;572;46010;-62
2022/01/08 01:15:35;;;;;;;31.73;22.58;;;;;;;;;;143724;565;46018;-63
2022/01/08 01:18:02;;;;;;;22.83;16.02;;;;;;;;;;143730;586;46022;-62
2022/01/08 01:20:29;;;;;;;32.83;23.33;;;;;;;;;;143726;580;47018;-63
2022/01/08 01:23:11;;;;;;;25.58;18.60;;;;;;;;;;143725;622;46022;-63
2022/01/08 01:43:04;;;;;;;22.30;15.55;;;;;;;;;;143739;570;47019;-62
2022/01/08 01:47:55;;;;;;;;;;;;;;;;;;143745;966;46020;-63
2022/01/08 01:50:22;;;;;;;21.40;13.27;;;;;;;;;;143748;565;46023;-62
2022/01/08 01:52:49;;;;;;;29.75;16.25;;;;;;;;;;143740;594;46020;-61
2022/01/08 01:55:16;;;;;;;23.95;16.90;;;;;;;;;;143740;664;46012;-62
2022/01/08 01:57:44;;;;;;;23.83;17.12;;;;;;;;;;143738;578;46019;-62
2022/01/08 02:00:12;;;;;;;26.85;18.27;;;;;;;;;;143744;569;46022;-62
2022/01/08 02:02:40;;;;;;;25.40;16.37;;;;;;;;;;143741;635;46020;-62
2022/01/08 02:05:08;;;;;;;24.12;18.15;;;;;;;;;;143741;601;46013;-61
2022/01/08 02:07:35;;;;;;;32.13;21.33;;;;;;;;;;143740;613;46018;-62
2022/01/08 02:10:02;;;;;;;28.27;18.30;;;;;;;;;;143742;683;46022;-62
2022/01/08 02:12:33;;;;;;;31.00;21.30;;;;;;;;;;143739;571;46046;-62
2022/01/08 02:15:00;;;;;;;32.55;20.20;;;;;;;;;;143740;644;46022;-61
2022/01/08 02:17:27;;;;;;;30.62;21.80;;;;;;;;;;143740;595;46018;-61
2022/01/08 02:19:54;;;;;;;41.05;22.98;;;;;;;;;;143743;594;46023;-61
2022/01/08 02:22:21;;;;;;;27.95;20.85;;;;;;;;;;143740;599;46046;-63
2022/01/08 02:24:49;;;;;;;24.83;17.42;;;;;;;;;;143740;596;46013;-62
2022/01/08 02:27:17;;;;;;;33.42;18.75;;;;;;;;;;143736;583;47012;-62
2022/01/08 02:29:45;;;;;;;40.70;23.35;;;;;;;;;;143742;626;46022;-61
2022/01/08 02:32:15;;;;;;;31.77;21.70;;;;;;;;;;143741;570;46018;-62
2022/01/08 02:34:44;;;;;;;28.83;17.65;;;;;;;;;;143741;615;46023;-62
2022/01/08 02:37:13;;;;;;;27.48;20.30;;;;;;;;;;143742;564;46018;-62
2022/01/08 02:39:43;;;;;;;40.72;24.90;;;;;;;;;;143739;575;46022;-62
2022/01/08 02:42:13;;;;;;;46.55;27.08;;;;;;;;;;143743;693;46021;-62
2022/01/08 02:44:44;;;;;;;31.67;22.45;;;;;;;;;;143740;579;46022;-63
2022/01/08 02:47:15;;;;;;;28.75;18.08;;;;;;;;;;143741;587;46018;-61
2022/01/08 02:49:42;;;;;;;36.03;23.48;;;;;;;;;;143743;644;46023;-63
2022/01/08 02:52:10;;;;;;;39.67;21.20;;;;;;;;;;143742;566;46020;-63
2022/01/08 02:54:37;;;;;;;23.62;17.70;;;;;;;;;;143740;580;46022;-63
2022/01/08 02:57:04;;;;;;;30.40;19.90;;;;;;;;;;143741;625;46019;-63
2022/01/08 02:59:32;;;;;;;26.80;17.05;;;;;;;;;;143743;585;46022;-62
2022/01/08 03:02:00;;;;;;;31.70;18.60;;;;;;;;;;143741;567;46043;-62
2022/01/08 03:04:27;;;;;;;37.40;20.50;;;;;;;;;;143739;650;46022;-63
2022/01/08 03:06:54;;;;;;;33.53;20.80;;;;;;;;;;143738;614;46018;-62
2022/01/08 03:09:21;;;;;;;41.30;22.52;;;;;;;;;;143740;569;46022;-62
2022/01/08 03:11:48;;;;;;;31.17;22.48;;;;;;;;;;143741;569;46020;-62
2022/01/08 03:14:15;;;;;;;37.15;22.35;;;;;;;;;;143740;565;46022;-61
2022/01/08 03:16:42;;;;;;;27.87;19.70;;;;;;;;;;143738;564;46018;-62
2022/01/08 03:19:10;;;;;;;26.00;18.60;;;;;;;;;;143740;666;46023;-62
2022/01/08 03:21:42;;;;;;;33.40;20.27;;;;;;;;;;143739;597;47020;-62
2022/01/08 03:24:15;;;;;;;37.13;23.98;;;;;;;;;;143740;648;46012;-62
2022/01/08 03:26:42;;;;;;;37.50;25.00;;;;;;;;;;143740;613;46019;-62
2022/01/08 03:29:09;;;;;;;31.70;23.12;;;;;;;;;;143741;566;46022;-61
2022/01/08 03:31:36;;;;;;;40.22;27.60;;;;;;;;;;143742;575;46020;-62
2022/01/08 03:34:05;;;;;;;45.25;28.55;;;;;;;;;;143740;588;46023;-62
2022/01/08 03:36:32;;;;;;;42.22;27.10;;;;;;;;;;143740;569;46018;-61
2022/01/08 03:39:00;;;;;;;45.72;29.08;;;;;;;;;;143742;621;46022;-61
2022/01/08 03:41:27;;;;;;;39.03;25.50;;;;;;;;;;143740;583;46021;-62
2022/01/08 03:43:54;;;;;;;38.30;22.98;;;;;;;;;;143739;594;46022;-62
2022/01/08 03:46:22;;;;;;;41.35;26.42;;;;;;;;;;143740;580;46018;-61
2022/01/08 03:51:48;;;;;;;42.10;26.37;;;;;;;;;;143738;579;46020;-63
2022/01/08 03:54:15;;;;;;;37.65;22.48;;;;;;;;;;143740;706;46022;-63
2022/01/08 03:56:42;;;;;;;39.15;25.05;;;;;;;;;;143739;657;46019;-61
2022/01/08 03:59:09;;;;;;;41.33;24.65;;;;;;;;;;143740;600;46022;-63
2022/01/08 04:01:36;;;;;;;31.62;20.30;;;;;;;;;;143742;585;46020;-63
2022/01/08 04:04:03;;;;;;;43.50;28.75;;;;;;;;;;143740;570;46023;-61
2022/01/08 04:06:30;;;;;;;34.50;24.52;;;;;;;;;;143739;574;46018;-63
2022/01/08 04:08:58;;;;;;;35.30;20.73;;;;;;;;;;143742;729;46022;-62
2022/01/08 04:11:26;;;;;;;32.97;22.30;;;;;;;;;;143741;571;46020;-62
2022/01/08 04:13:55;;;;;;;27.98;20.17;;;;;;;;;;143739;592;46022;-61
2022/01/08 04:16:29;;;;;;;32.97;22.30;;;;;;;;;;143741;569;46018;-61
2022/01/08 04:18:57;;;;;;;34.05;25.02;;;;;;;;;;143740;587;46022;-63
2022/01/08 04:24:13;;;;;;;33.80;22.87;;;;;;;;;;143741;591;45918;-62
2022/01/08 04:26:40;;;;;;;32.80;22.15;;;;;;;;;;143738;569;46019;-62
2022/01/08 04:29:07;;;;;;;34.45;23.77;;;;;;;;;;143742;631;46022;-62
2022/01/08 04:31:34;;;;;;;33.88;23.25;;;;;;;;;;143740;569;47020;-63
2022/01/08 04:34:01;;;;;;;34.90;23.87;;;;;;;;;;143740;620;46025;-62
2022/01/08 04:36:28;;;;;;;32.92;22.37;;;;;;;;;;143738;585;46018;-61
2022/01/08 04:38:55;;;;;;;32.08;20.73;;;;;;;;;;143742;580;46022;-61
2022/01/08 04:41:22;;;;;;;35.15;23.08;;;;;;;;;;143739;601;46021;-62
2022/01/08 04:43:49;;;;;;;35.47;22.30;;;;;;;;;;143740;586;46022;-62
2022/01/08 04:46:16;;;;;;;31.10;22.13;;;;;;;;;;143740;597;46018;-62
2022/01/08 04:48:43;;;;;;;38.42;22.55;;;;;;;;;;143742;607;46041;-62
2022/01/08 04:51:10;;;;;;;32.47;23.58;;;;;;;;;;143741;651;46022;-62
2022/01/08 04:53:37;;;;;;;25.73;17.80;;;;;;;;;;143740;624;46020;-62
2022/01/08 04:56:05;;;;;;;36.17;25.20;;;;;;;;;;143738;570;46021;-61
2022/01/08 04:58:32;;;;;;;27.25;18.27;;;;;;;;;;143744;590;46020;-61
2022/01/08 05:00:59;;;;;;;28.15;19.33;;;;;;;;;;143739;576;46051;-61
2022/01/08 05:03:26;;;;;;;34.47;22.02;;;;;;;;;;143738;652;46021;-63
2022/01/08 05:05:53;;;;;;;25.75;17.83;;;;;;;;;;143738;610;46045;-61
2022/01/08 05:08:20;;;;;;;33.28;23.23;;;;;;;;;;143743;588;46020;-61
2022/01/08 05:10:47;;;;;;;32.15;20.40;;;;;;;;;;143740;579;47021;-62
2022/01/08 05:13:14;;;;;;;29.90;21.67;;;;;;;;;;143740;569;46020;-63
2022/01/08 05:15:41;;;;;;;41.10;24.35;;;;;;;;;;143738;620;46020;-61
2022/01/08 05:18:09;;;;;;;27.33;21.00;;;;;;;;;;143743;571;46020;-63
2022/01/08 05:20:39;;;;;;;36.28;25.15;;;;;;;;;;143742;654;46022;-62
2022/01/08 05:23:06;;;;;;;36.75;23.98;;;;;;;;;;143740;597;46020;-62
2022/01/08 05:25:34;;;;;;;41.97;25.02;;;;;;;;;;143741;593;46020;-62
2022/01/08 05:28:01;;;;;;;32.55;21.30;;;;;;;;;;143741;564;46020;-63
2022/01/08 05:30:29;;;;;;;32.10;22.42;;;;;;;;;;143742;590;46022;-62
2022/01/08 05:32:56;;;;;;;33.58;22.05;;;;;;;;;;143741;588;46013;-63
2022/01/08 05:35:25;;;;;;;41.63;28.67;;;;;;;;;;143738;573;46020;-62
2022/01/08 05:37:53;;;;;;;33.47;21.65;;;;;;;;;;143740;569;46020;-61
2022/01/08 05:40:20;;;;;;;45.55;26.55;;;;;;;;;;143743;559;46022;-62
2022/01/08 05:42:47;;;;;;;38.03;24.05;;;;;;;;;;143739;627;46916;-62
2022/01/08 05:45:14;;;;;;;46.15;25.62;;;;;;;;;;143740;610;46020;-61
2022/01/08 05:47:41;;;;;;;34.20;22.37;;;;;;;;;;143743;634;46020;-61
2022/01/08 05:50:09;;;;;;;37.60;26.42;;;;;;;;;;143741;670;46023;-62
2022/01/08 05:52:36;;;;;;;30.95;23.77;;;;;;;;;;143740;604;46020;-62
2022/01/08 05:55:04;;;;;;;32.97;23.83;;;;;;;;;;143741;646;46021;-63
2022/01/08 05:57:31;;;;;;;32.22;22.37;;;;;;;;;;143741;587;46020;-61
2022/01/08 05:59:58;;;;;;;36.85;24.83;;;;;;;;;;143741;583;46022;-62
2022/01/08 06:02:25;;;;;;;35.67;22.65;;;;;;;;;;143739;623;46915;-61
2022/01/08 06:04:52;;;;;;;32.25;22.92;;;;;;;;;;143740;569;46020;-62
2022/01/08 06:07:19;;;;;;;42.00;21.67;;;;;;;;;;143741;585;46020;-62
2022/01/08 06:09:46;;;;;;;32.97;20.35;;;;;;;;;;143742;581;47020;-62
2022/01/08 06:12:13;;;;;;;28.15;19.87;;;;;;;;;;143739;582;46020;-62
2022/01/08 06:14:40;;;;;;;22.95;16.85;;;;;;;;;;143741;581;46020;-62
2022/01/08 06:17:07;;;;;;;28.77;19.40;;;;;;;;;;143744;656;46020;-63
2022/01/08 06:19:34;;;;;;;25.17;17.12;;;;;;;;;;143740;647;46023;-63
2022/01/08 06:22:02;;;;;;;34.08;19.85;;;;;;;;;;143740;651;46012;-61
2022/01/08 06:24:29;;;;;;;32.92;23.17;;;;;;;;;;143738;581;46912;-62
2022/01/08 06:26:57;;;;;;;42.83;31.17;;;;;;;;;;143741;570;46021;-62
2022/01/08 06:29:24;;;;;;;53.25;41.55;;;;;;;;;;143739;680;46022;-62
2022/01/08 06:31:51;;;;;;;59.95;50.10;;;;;;;;;;143739;566;47012;-62
2022/01/08 06:34:18;;;;;;;51.28;38.72;;;;;;;;;;143740;576;46021;-62
2022/01/08 06:36:45;;;;;;;46.10;32.38;;;;;;;;;;143744;566;46020;-62
2022/01/08 06:39:12;;;;;;;36.88;27.48;;;;;;;;;;143739;624;46022;-62
2022/01/08 06:41:39;;;;;;;40.63;32.50;;;;;;;;;;143739;689;47916;-62
2022/01/08 06:44:06;;;;;;;42.22;29.70;;;;;;;;;;143739;564;46020;-61
2022/01/08 06:46:33;;;;;;;34.17;25.85;;;;;;;;;;143743;570;46020;-62
2022/01/08 06:49:00;;;;;;;35.05;24.40;;;;;;;;;;143742;595;46023;-62
2022/01/08 06:51:27;;;;;;;36.00;23.12;;;;;;;;;;143741;581;46012;-61
2022/01/08 06:53:55;;;;;;;31.83;19.17;;;;;;;;;;143739;665;46020;-62
2022/01/08 06:56:22;;;;;;;27.00;18.70;;;;;;;;;;143742;570;46021;-62
2022/01/08 06:58:49;;;;;;;29.98;18.42;;;;;;;;;;143741;569;46022;-61
2022/01/08 07:01:16;;;;;;;32.72;19.95;;;;;;;;;;143741;629;46915;-61
2022/01/08 07:03:43;;;;;;;33.58;20.45;;;;;;;;;;143739;575;46034;-62
2022/01/08 07:06:10;;;;;;;28.58;21.62;;;;;;;;;;143742;626;46020;-62
2022/01/08 07:08:37;;;;;;;29.15;21.17;;;;;;;;;;143742;621;46022;-61
2022/01/08 07:11:04;;;;;;;29.52;21.65;;;;;;;;;;143741;576;46021;-62
2022/01/08 07:13:31;;;;;;;31.02;23.38;;;;;;;;;;143738;593;46020;-62
2022/01/08 07:15:58;;;;;;;27.70;19.60;;;;;;;;;;143743;570;46020;-62
2022/01/08 07:18:25;;;;;;;34.22;23.48;;;;;;;;;;143739;589;47023;-61
2022/01/08 07:20:52;;;;;;;35.88;22.55;;;;;;;;;;143741;574;46012;-61
2022/01/08 07:23:19;;;;;;;36.00;22.30;;;;;;;;;;143741;588;46020;-62
2022/01/08 07:25:46;;;;;;;40.95;24.23;;;;;;;;;;143743;603;46021;-62
2022/01/08 07:28:13;;;;;;;38.53;21.92;;;;;;;;;;143740;646;46022;-62
2022/01/08 07:30:40;;;;;;;32.28;20.95;;;;;;;;;;143740;578;46915;-62
2022/01/08 07:33:07;;;;;;;28.12;18.37;;;;;;;;;;143740;584;46042;-63
2022/01/08 07:35:34;;;;;;;22.67;16.70;;;;;;;;;;143741;589;46020;-63
2022/01/08 07:38:01;;;;;;;31.45;20.50;;;;;;;;;;143742;604;46041;-63
2022/01/08 07:40:28;;;;;;;39.15;21.67;;;;;;;;;;143740;624;46021;-63
2022/01/08 07:42:55;;;;;;;31.48;20.77;;;;;;;;;;143740;564;46020;-62
2022/01/08 07:45:22;;;;;;;42.72;27.15;;;;;;;;;;143742;592;46020;-61
2022/01/08 07:47:49;;;;;;;38.08;25.67;;;;;;;;;;143740;612;47023;-62
2022/01/08 07:50:17;;;;;;;32.47;20.55;;;;;;;;;;143740;566;46020;-62
2022/01/08 07:52:44;;;;;;;27.40;18.12;;;;;;;;;;143740;564;46020;-62
2022/01/08 07:55:12;;;;;;;28.30;19.55;;;;;;;;;;143744;609;46021;-63
2022/01/08 07:57:39;;;;;;;28.75;17.83;;;;;;;;;;143741;591;46022;-62
2022/01/08 08:00:07;;;;;;;27.13;16.62;;;;;;;;;;143741;597;46020;-62
2022/01/08 08:02:34;;;;;;;33.72;18.35;;;;;;;;;;143742;594;46021;-62
2022/01/08 08:05:01;;;;;;;32.35;19.15;;;;;;;;;;143743;565;46020;-63
2022/01/08 08:07:29;;;;;;;33.40;21.62;;;;;;;;;;143740;577;47022;-63
2022/01/08 08:09:56;;;;;;;33.28;20.65;;;;;;;;;;143741;662;46021;-63
2022/01/08 08:12:23;;;;;;;35.10;19.02;;;;;;;;;;143741;582;46020;-63
2022/01/08 08:14:51;;;;;;;37.95;19.35;;;;;;;;;;143742;586;46020;-61
2022/01/08 08:17:18;;;;;;;37.15;19.75;;;;;;;;;;143741;593;46022;-63
2022/01/08 08:19:45;;;;;;;25.02;15.45;;;;;;;;;;143742;597;46012;-63
2022/01/08 08:22:12;;;;;;;26.52;15.38;;;;;;;;;;143741;575;46020;-63
2022/01/08 08:24:39;;;;;;;26.80;15.05;;;;;;;;;;143743;564;46020;-63
2022/01/08 08:27:07;;;;;;;25.10;14.65;;;;;;;;;;143743;588;46022;-63
2022/01/08 08:29:34;;;;;;;27.65;14.10;;;;;;;;;;143742;656;46020;-63
2022/01/08 08:32:01;;;;;;;20.73;12.85;;;;;;;;;;143742;593;46020;-63
2022/01/08 08:34:28;;;;;;;29.52;14.13;;;;;;;;;;143744;575;46020;-61
2022/01/08 08:36:55;;;;;;;20.98;12.43;;;;;;;;;;143740;569;47028;-63
2022/01/08 08:39:22;;;;;;;19.12;12.52;;;;;;;;;;143741;581;46922;-62
2022/01/08 08:41:49;;;;;;;22.30;12.48;;;;;;;;;;143744;593;46020;-61
2022/01/08 08:44:16;;;;;;;27.52;14.60;;;;;;;;;;143743;681;46020;-62
2022/01/08 08:46:43;;;;;;;23.50;12.75;;;;;;;;;;143742;577;46022;-63
2022/01/08 08:49:10;;;;;;;27.20;13.75;;;;;;;;;;143742;577;46020;-63
2022/01/08 08:51:38;;;;;;;26.87;13.13;;;;;;;;;;143740;588;46020;-63
2022/01/08 08:54:05;;;;;;;30.55;12.98;;;;;;;;;;143742;738;46020;-63
2022/01/08 08:56:32;;;;;;;27.83;12.82;;;;;;;;;;143742;570;46023;-63
2022/01/08 08:58:59;;;;;;;26.48;13.27;;;;;;;;;;143741;580;46020;-63
2022/01/08 09:01:27;;;;;;;26.58;13.45;;;;;;;;;;143742;570;46020;-62
2022/01/08 09:03:54;;;;;;;22.02;10.77;;;;;;;;;;143745;584;46020;-63
2022/01/08 09:06:22;;;;;;;29.48;11.82;;;;;;;;;;143742;587;46022;-62
2022/01/08 09:08:50;;;;;;;24.23;14.18;;;;;;;;;;143742;580;46021;-63
2022/01/08 09:11:17;;;;;;;19.77;12.45;;;;;;;;;;143741;576;46020;-61
2022/01/08 09:13:44;;;;;;;19.02;12.75;;;;;;;;;;143744;590;46020;-63
2022/01/08 09:16:12;;;;;;;17.62;12.82;;;;;;;;;;143743;699;46022;-62
2022/01/08 09:18:41;;;;;;;36.85;15.20;;;;;;;;;;143742;601;46020;-63
2022/01/08 09:21:08;;;;;;;21.95;12.95;;;;;;;;;;143742;585;46020;-63
2022/01/08 09:23:35;;;;;;;22.30;13.70;;;;;;;;;;143742;582;46020;-63
2022/01/08 09:26:02;;;;;;;22.50;13.13;;;;;;;;;;143741;607;46023;-64
2022/01/08 09:28:30;;;;;;;22.60;14.40;;;;;;;;;;143742;569;46020;-63
2022/01/08 09:30:57;;;;;;;24.52;16.98;;;;;;;;;;143742;570;46021;-64
2022/01/08 09:33:25;;;;;;;29.58;17.42;;;;;;;;;;143744;589;46021;-63
2022/01/08 09:35:53;;;;;;;28.75;18.20;;;;;;;;;;143743;683;46022;-63
2022/01/08 09:38:20;;;;;;;31.77;18.60;;;;;;;;;;143741;564;46021;-64
2022/01/08 09:40:47;;;;;;;27.73;15.55;;;;;;;;;;143740;608;46021;-63
2022/01/08 09:43:17;;;;;;;25.58;15.52;;;;;;;;;;143740;569;46020;-62
2022/01/08 09:45:45;;;;;;;27.15;15.52;;;;;;;;;;143743;581;46022;-62
2022/01/08 09:48:12;;;;;;;33.83;17.33;;;;;;;;;;143741;663;46020;-63
2022/01/08 09:50:40;;;;;;;27.02;15.68;;;;;;;;;;143743;577;46020;-63
2022/01/08 09:53:07;;;;;;;26.10;16.73;;;;;;;;;;143743;633;46020;-63
2022/01/08 09:55:34;;;;;;;28.15;15.48;;;;;;;;;;143743;594;46023;-63
2022/01/08 09:58:01;;;;;;;28.23;13.68;;;;;;;;;;143743;606;46012;-61
2022/01/08 10:00:32;;;;;;;32.05;15.80;;;;;;;;;;143741;671;46020;-61
2022/01/08 10:03:23;;;;;;;30.35;15.77;;;;;;;;;;143741;608;46021;-63
2022/01/08 10:05:52;;;;;;;9.82;6.60;;;;;;;;;;143743;608;46022;-63
2022/01/08 10:08:30;;;;;;;7.00;5.30;;;;;;;;;;143741;591;46020;-63
2022/01/08 10:11:07;;;;;;;11.98;6.53;;;;;;;;;;143740;585;46036;-61
2022/01/08 10:13:39;;;;;;;9.57;5.90;;;;;;;;;;143746;563;46020;-62
2022/01/08 10:19:02;;;;;;;8.27;4.90;;;;;;;;;;143740;590;46914;-63
2022/01/08 10:21:33;;;;;;;9.10;4.28;;;;;;;;;;143742;588;46020;-62
2022/01/08 10:24:08;;;;;;;7.97;4.68;;;;;;;;;;143742;575;46021;-64
2022/01/08 10:26:37;;;;;;;7.43;4.55;;;;;;;;;;143742;585;46022;-63
2022/01/08 10:29:06;;;;;;;6.10;4.32;;;;;;;;;;143742;724;46013;-64
2022/01/08 10:31:38;;;;;;;9.00;5.22;;;;;;;;;;143743;616;46023;-63
2022/01/08 10:34:24;;;;;;;7.70;5.97;;;;;;;;;;143744;610;46018;-64
2022/01/08 10:37:09;;;;;;;7.43;5.03;;;;;;;;;;143744;579;46022;-64
2022/01/08 10:39:39;;;;;;;6.62;4.12;;;;;;;;;;143742;632;46012;-63
2022/01/08 10:42:14;;;;;;;7.12;4.15;;;;;;;;;;143740;571;46020;-63
2022/01/08 10:44:41;;;;;;;;;;;;;;;;;;143749;980;46020;-62
2022/01/08 10:47:16;;;;;;;5.12;3.70;;;;;;;;;;143746;585;46023;-62
2022/01/08 10:50:05;;;;;;;;;;;;;;;;;;143746;980;46012;-61
2022/01/08 10:52:42;;;;;;;11.27;5.50;;;;;;;;;;143743;597;46021;-62
2022/01/08 10:55:12;;;;;;;13.57;6.55;;;;;;;;;;143743;638;46020;-61
2022/01/08 10:57:46;;;;;;;10.93;5.53;;;;;;;;;;143744;602;46022;-62
2022/01/08 11:00:15;;;;;;;11.75;7.00;;;;;;;;;;143742;569;46013;-62
2022/01/08 11:02:43;;;;;;;10.80;6.68;;;;;;;;;;143742;639;46020;-61
2022/01/08 11:05:13;;;;;;;16.75;8.35;;;;;;;;;;143745;565;46020;-61
2022/01/08 11:07:41;;;;;;;17.20;8.18;;;;;;;;;;143741;789;46051;-62
2022/01/08 11:10:15;;;;;;;11.75;7.53;;;;;;;;;;143742;729;46020;-62
2022/01/08 11:12:45;;;;;;;13.80;8.55;;;;;;;;;;143743;569;46020;-62
2022/01/08 11:15:36;;;;;;;10.27;7.70;;;;;;;;;;143744;913;46021;-62
2022/01/08 11:18:03;;;;;;;13.75;7.30;;;;;;;;;;143730;566;46022;-61
2022/01/08 11:20:32;;;;;;;11.15;7.87;;;;;;;;;;143740;810;46915;-62
2022/01/08 11:23:01;;;;;;;11.32;8.48;;;;;;;;;;143744;696;46021;-62
2022/01/08 11:25:33;;;;;;;14.27;9.18;;;;;;;;;;143743;582;46020;-62
2022/01/08 11:28:10;;;;;;;15.43;9.77;;;;;;;;;;143745;575;46022;-62
2022/01/08 11:30:40;;;;;;;15.27;10.18;;;;;;;;;;143742;628;46013;-61
2022/01/08 11:33:17;;;;;;;14.35;9.10;;;;;;;;;;143743;623;46020;-60
2022/01/08 11:35:46;;;;;;;18.58;11.32;;;;;;;;;;143743;581;46020;-61
2022/01/08 11:38:16;;;;;;;17.98;10.40;;;;;;;;;;143745;601;46023;-62
2022/01/08 11:40:45;;;;;;;14.63;9.95;;;;;;;;;;143741;579;46020;-61
2022/01/08 11:43:16;;;;;;;19.62;8.88;;;;;;;;;;143743;569;46020;-62
2022/01/08 11:46:00;;;;;;;12.77;7.85;;;;;;;;;;143745;565;46021;-62
2022/01/08 11:48:33;;;;;;;12.68;8.68;;;;;;;;;;143743;581;47020;-62
2022/01/08 11:51:02;;;;;;;12.70;8.48;;;;;;;;;;143742;610;46020;-61
2022/01/08 11:53:49;;;;;;;16.98;8.95;;;;;;;;;;143742;702;46021;-62
2022/01/08 11:56:31;;;;;;;14.27;8.65;;;;;;;;;;143743;589;46020;-61
2022/01/08 11:59:10;;;;;;;13.90;8.88;;;;;;;;;;143743;880;46022;-62
2022/01/08 12:01:39;;;;;;;14.18;9.15;;;;;;;;;;143741;690;46020;-62
2022/01/08 12:04:23;;;;;;;14.02;9.30;;;;;;;;;;143742;580;46020;-62
2022/01/08 12:06:50;;;;;;;15.07;7.15;;;;;;;;;;143742;681;46020;-61
2022/01/08 12:09:26;;;;;;;12.15;7.65;;;;;;;;;;143741;580;47020;-62
2022/01/08 12:12:06;;;;;;;8.57;5.65;;;;;;;;;;143742;573;46020;-62
2022/01/08 12:14:56;;;;;;;10.02;6.60;;;;;;;;;;143742;575;46020;-62
2022/01/08 12:17:27;;;;;;;11.27;6.80;;;;;;;;;;143743;725;46020;-61
2022/01/08 12:19:58;;;;;;;10.52;7.22;;;;;;;;;;143743;631;46022;-63
2022/01/08 12:22:34;;;;;;;12.25;6.97;;;;;;;;;;143742;825;46013;-63
2022/01/08 12:25:03;;;;;;;10.50;6.75;;;;;;;;;;143739;583;46020;-62
2022/01/08 12:27:56;;;;;;;11.45;5.82;;;;;;;;;;143746;673;46020;-61
2022/01/08 12:30:43;;;;;;;12.80;6.35;;;;;;;;;;143740;592;47025;-62
2022/01/08 12:33:20;;;;;;;9.10;5.62;;;;;;;;;;143742;740;46012;-63
2022/01/08 12:35:47;;;;;;;11.23;6.65;;;;;;;;;;143740;782;46020;-61
2022/01/08 12:38:29;;;;;;;8.77;6.40;;;;;;;;;;143746;793;46021;-63
2022/01/08 12:40:57;;;;;;;11.15;6.53;;;;;;;;;;143743;573;46022;-63
2022/01/08 12:43:35;;;;;;;11.12;6.75;;;;;;;;;;143742;799;46020;-63
2022/01/08 12:46:27;;;;;;;12.10;6.57;;;;;;;;;;143740;646;46021;-63
2022/01/08 12:49:11;;;;;;;11.32;5.93;;;;;;;;;;143740;679;46020;-63
2022/01/08 12:52:10;;;;;;;11.68;6.53;;;;;;;;;;143742;736;46022;-62
2022/01/08 12:54:43;;;;;;;9.70;6.25;;;;;;;;;;143741;591;46020;-62
2022/01/08 12:57:10;;;;;;;10.13;5.97;;;;;;;;;;143740;591;46020;-62
2022/01/08 12:59:39;;;;;;;10.77;5.50;;;;;;;;;;143740;575;46020;-63
2022/01/08 13:02:08;;;;;;;10.65;6.60;;;;;;;;;;143742;568;46022;-63
2022/01/08 13:04:36;;;;;;;11.07;6.62;;;;;;;;;;143740;619;46020;-62
2022/01/08 13:07:03;;;;;;;13.13;6.15;;;;;;;;;;143738;626;46021;-62
2022/01/08 13:09:29;;;;;;;9.82;5.65;;;;;;;;;;143743;833;46020;-61
2022/01/08 13:11:57;;;;;;;12.00;6.30;;;;;;;;;;143740;611;46022;-63
2022/01/08 13:14:29;;;;;;;12.93;6.18;;;;;;;;;;143740;567;46020;-61
2022/01/08 13:16:57;;;;;;;12.93;6.72;;;;;;;;;;143737;633;46020;-62
2022/01/08 13:19:26;;;;;;;12.95;5.87;;;;;;;;;;143740;599;46020;-62
2022/01/08 13:21:56;;;;;;;10.77;6.40;;;;;;;;;;143742;569;46051;-61
2022/01/08 13:24:35;;;;;;;11.88;5.97;;;;;;;;;;143740;576;46020;-62
2022/01/08 13:27:04;;;;;;;9.30;5.53;;;;;;;;;;143738;625;46020;-63
2022/01/08 13:29:39;;;;;;;9.02;6.37;;;;;;;;;;143740;648;46021;-62
2022/01/08 13:32:28;;;;;;;13.52;4.72;;;;;;;;;;143741;618;46022;-62
2022/01/08 13:35:01;;;;;;;7.68;4.32;;;;;;;;;;143740;638;46012;-63
2022/01/08 13:37:30;;;;;;;8.07;4.30;;;;;;;;;;143741;597;46021;-62
2022/01/08 13:40:04;;;;;;;6.95;4.43;;;;;;;;;;143741;633;46020;-61
2022/01/08 13:42:44;;;;;;;5.12;3.80;;;;;;;;;;143741;573;46022;-63
2022/01/08 13:45:20;;;;;;;5.95;3.83;;;;;;;;;;143740;591;46013;-63
2022/01/08 13:47:54;;;;;;;8.30;4.35;;;;;;;;;;143740;564;46020;-63
2022/01/08 13:50:35;;;;;;;5.27;3.53;;;;;;;;;;143740;753;46028;-62
2022/01/08 13:53:05;;;;;;;7.70;3.87;;;;;;;;;;143739;621;47023;-61
2022/01/08 13:55:44;;;;;;;7.60;4.20;;;;;;;;;;143739;613;46904;-61
2022/01/08 13:58:26;;;;;;;7.28;4.50;;;;;;;;;;143739;578;46020;-63
2022/01/08 14:01:00;;;;;;;8.15;4.28;;;;;;;;;;143743;612;46021;-61
2022/01/08 14:03:33;;;;;;;6.70;4.20;;;;;;;;;;143741;570;46022;-62
2022/01/08 14:06:06;;;;;;;6.20;4.40;;;;;;;;;;143740;610;46013;-63
2022/01/08 14:08:35;;;;;;;7.95;4.37;;;;;;;;;;143738;569;46021;-62
2022/01/08 14:11:04;;;;;;;7.93;4.90;;;;;;;;;;143742;589;46020;-61
2022/01/08 14:13:33;;;;;;;8.32;4.82;;;;;;;;;;143739;614;47022;-63
2022/01/08 14:16:07;;;;;;;6.00;4.80;;;;;;;;;;143739;597;46020;-62
2022/01/08 14:18:34;;;;;;;6.07;4.60;;;;;;;;;;143741;597;46020;-61
2022/01/08 14:21:24;;;;;;;7.10;5.25;;;;;;;;;;143741;602;46020;-62
2022/01/08 14:23:51;;;;;;;9.57;4.87;;;;;;;;;;143741;650;46050;-62
2022/01/08 14:26:23;;;;;;;9.93;5.55;;;;;;;;;;143740;640;46012;-62
2022/01/08 14:29:12;;;;;;;9.70;5.87;;;;;;;;;;143740;584;46021;-62
2022/01/08 14:31:40;;;;;;;7.57;5.20;;;;;;;;;;143741;583;46020;-62
2022/01/08 14:34:21;;;;;;;9.32;5.22;;;;;;;;;;143740;619;46022;-62
2022/01/08 14:36:59;;;;;;;9.30;4.90;;;;;;;;;;143740;605;46021;-62
2022/01/08 14:39:54;;;;;;;10.38;5.68;;;;;;;;;;143739;599;46020;-61
2022/01/08 14:42:28;;;;;;;8.93;4.85;;;;;;;;;;143740;585;46022;-61
2022/01/08 14:45:02;;;;;;;10.53;5.83;;;;;;;;;;143741;575;46023;-61
2022/01/08 14:47:35;;;;;;;7.87;5.28;;;;;;;;;;143740;593;46020;-62
2022/01/08 14:50:08;;;;;;;7.62;5.47;;;;;;;;;;143737;592;46029;-63
2022/01/08 14:52:38;;;;;;;11.18;5.95;;;;;;;;;;143743;614;46021;-62
2022/01/08 14:55:07;;;;;;;12.95;5.82;;;;;;;;;;143738;564;46022;-61
2022/01/08 14:57:34;;;;;;;11.82;6.32;;;;;;;;;;143740;566;46012;-62
2022/01/08 15:00:01;;;;;;;8.77;5.68;;;;;;;;;;143740;612;46021;-62
2022/01/08 15:02:33;;;;;;;10.93;6.53;;;;;;;;;;143742;579;46020;-61
2022/01/08 15:05:01;;;;;;;9.88;5.97;;;;;;;;;;143741;583;46022;-62
2022/01/08 15:07:28;;;;;;;12.88;6.70;;;;;;;;;;143740;570;46013;-62